Time;durP1;ratioP1;P1;durP2;ratioP2;P2;SDS_P1;SDS_P2;PMS_P1;PMS_P2;Temp;Humidity;BMP_temperature;BMP_pressure;BME280_temperature;BME280_humidity;BME280_pressure;Samples;Min_cycle;Max_cycle;Signal;HPM_P1;HPM_P2
2021/05/16 00:00:39;;;;;;;21.87;4.10;;;11.50;99.90;;;;;;5050015;28;20274;-77
2021/05/16 00:03:05;;;;;;;28.20;4.40;;;11.50;99.90;;;;;;5052595;28;20187;-76
2021/05/16 00:05:32;;;;;;;28.63;5.00;;;11.50;99.90;;;;;;5047578;28;20181;-77
2021/05/16 00:07:58;;;;;;;28.67;5.13;;;11.40;99.90;;;;;;5049206;28;20211;-77
2021/05/16 00:10:25;;;;;;;30.23;5.27;;;11.40;99.90;;;;;;5043879;28;20659;-77
2021/05/16 00:12:52;;;;;;;27.03;5.10;;;11.40;99.90;;;;;;5032639;28;20184;-77
2021/05/16 00:15:20;;;;;;;31.47;5.47;;;11.40;99.90;;;;;;5052245;28;20196;-77
2021/05/16 00:17:47;;;;;;;27.47;5.17;;;11.40;99.90;;;;;;5046724;28;20185;-77
2021/05/16 00:20:18;;;;;;;28.23;5.10;;;11.40;99.90;;;;;;5047133;28;20536;-77
2021/05/16 00:22:43;;;;;;;31.10;5.07;;;11.50;99.90;;;;;;5041902;28;20186;-77
2021/05/16 00:25:12;;;;;;;31.40;4.87;;;11.40;99.90;;;;;;5048295;28;20669;-76
2021/05/16 00:27:39;;;;;;;27.70;4.57;;;11.50;99.90;;;;;;5049061;28;20243;-77
2021/05/16 00:30:08;;;;;;;27.97;4.57;;;11.40;99.90;;;;;;5048017;28;20212;-77
2021/05/16 00:32:34;;;;;;;24.07;5.23;;;11.40;99.90;;;;;;5050380;28;20204;-77
2021/05/16 00:35:00;;;;;;;30.03;5.70;;;11.40;99.90;;;;;;5028252;28;20204;-77
2021/05/16 00:37:26;;;;;;;31.70;6.17;;;11.50;99.90;;;;;;5047708;28;20189;-77
2021/05/16 00:39:51;;;;;;;27.57;5.90;;;11.40;99.90;;;;;;5046012;28;20191;-77
2021/05/16 00:42:17;;;;;;;24.10;5.47;;;11.40;99.90;;;;;;5049740;28;21703;-77
2021/05/16 00:44:59;;;;;;;22.33;5.73;;;11.30;99.90;;;;;;5040921;28;20194;-77
2021/05/16 00:47:25;;;;;;;25.53;5.90;;;11.30;99.90;;;;;;5058402;28;20187;-77
2021/05/16 00:49:53;;;;;;;31.63;6.07;;;11.30;99.90;;;;;;5049770;28;20203;-77
2021/05/16 00:52:19;;;;;;;27.90;5.83;;;11.30;99.90;;;;;;5042458;28;20184;-77
2021/05/16 00:54:45;;;;;;;21.60;5.67;;;11.30;99.90;;;;;;5049454;28;20173;-77
2021/05/16 00:57:10;;;;;;;28.50;6.53;;;11.30;99.90;;;;;;5049242;28;20275;-77
2021/05/16 00:59:38;;;;;;;19.73;5.17;;;11.40;99.90;;;;;;5046646;28;20189;-77
2021/05/16 01:02:04;;;;;;;28.37;6.13;;;11.30;99.90;;;;;;5048738;28;20185;-76
2021/05/16 01:04:30;;;;;;;26.37;5.23;;;11.40;99.90;;;;;;5047727;28;20176;-76
2021/05/16 01:06:55;;;;;;;21.93;5.00;;;11.40;99.90;;;;;;5048606;28;20521;-77
2021/05/16 01:09:25;;;;;;;21.00;5.17;;;11.40;99.90;;;;;;5047752;28;20261;-77
2021/05/16 01:11:51;;;;;;;25.40;4.97;;;11.30;99.90;;;;;;5047115;28;20198;-77
2021/05/16 01:15:03;;;;;;;23.57;5.57;;;11.30;99.90;;;;;;5049766;28;20518;-77
2021/05/16 01:17:06;;;;;;;27.33;5.73;;;11.30;99.90;;;;;;5045610;28;20184;-77
2021/05/16 01:19:33;;;;;;;23.20;4.93;;;11.30;99.90;;;;;;5054212;28;20297;-77
2021/05/16 01:22:03;;;;;;;25.57;5.47;;;11.20;99.90;;;;;;5052294;28;20274;-77
2021/05/16 01:24:29;;;;;;;25.87;5.50;;;11.20;99.90;;;;;;5051617;28;20192;-76
2021/05/16 01:27:02;;;;;;;24.60;5.37;;;11.20;99.90;;;;;;5048904;28;20195;-77
2021/05/16 01:29:28;;;;;;;24.53;5.90;;;11.40;99.90;;;;;;5053645;28;20217;-77
2021/05/16 01:31:55;;;;;;;29.13;5.33;;;11.40;99.90;;;;;;5055203;28;20197;-77
2021/05/16 01:34:22;;;;;;;27.60;6.00;;;11.30;99.90;;;;;;5049015;28;20185;-77
2021/05/16 01:36:48;;;;;;;25.37;6.53;;;11.40;99.90;;;;;;5051755;28;20683;-77
2021/05/16 01:39:15;;;;;;;27.07;6.37;;;11.40;99.90;;;;;;5047381;28;20192;-77
2021/05/16 01:41:41;;;;;;;26.00;5.93;;;11.40;99.90;;;;;;5053245;28;20189;-77
2021/05/16 01:44:11;;;;;;;22.27;6.03;;;11.30;99.90;;;;;;5044671;28;20184;-76
2021/05/16 01:46:38;;;;;;;27.93;5.73;;;11.30;99.90;;;;;;5046390;28;20189;-77
2021/05/16 01:49:04;;;;;;;21.63;5.67;;;11.20;99.90;;;;;;5051370;28;20208;-77
2021/05/16 01:51:33;;;;;;;23.73;5.63;;;11.20;99.90;;;;;;5051490;28;20177;-77
2021/05/16 01:53:59;;;;;;;25.67;6.00;;;11.30;99.90;;;;;;5054475;28;20187;-77
2021/05/16 01:56:27;;;;;;;21.53;5.30;;;11.20;99.90;;;;;;5053702;28;20664;-77
2021/05/16 01:58:55;;;;;;;27.03;5.87;;;11.20;99.90;;;;;;5051355;28;20677;-76
2021/05/16 02:01:21;;;;;;;22.00;5.90;;;11.20;99.90;;;;;;5050874;28;20187;-77
2021/05/16 02:03:53;;;;;;;21.67;5.43;;;11.10;99.90;;;;;;5035580;28;20177;-77
2021/05/16 02:06:20;;;;;;;20.47;5.30;;;11.10;99.90;;;;;;5048405;28;20185;-77
2021/05/16 02:08:48;;;;;;;23.87;6.23;;;11.00;99.90;;;;;;5046204;28;20978;-77
2021/05/16 02:11:22;;;;;;;25.77;5.73;;;11.00;99.90;;;;;;5052204;28;20532;-77
2021/05/16 02:13:53;;;;;;;20.57;5.50;;;11.00;99.90;;;;;;5039368;28;20196;-77
2021/05/16 02:16:19;;;;;;;17.00;5.40;;;11.00;99.90;;;;;;5052048;28;20204;-77
2021/05/16 02:18:49;;;;;;;20.80;6.07;;;11.00;99.90;;;;;;5047357;28;20638;-77
2021/05/16 02:21:26;;;;;;;19.67;4.80;;;11.10;99.90;;;;;;5049959;28;20190;-77
2021/05/16 02:23:52;;;;;;;29.37;6.13;;;11.10;99.90;;;;;;5050388;28;20548;-76
2021/05/16 02:26:26;;;;;;;22.47;5.67;;;11.10;99.90;;;;;;5049815;28;20489;-76
2021/05/16 02:28:52;;;;;;;16.43;4.40;;;11.20;99.90;;;;;;5050120;28;20295;-77
2021/05/16 02:31:19;;;;;;;23.33;5.50;;;11.10;99.90;;;;;;5041920;28;20173;-77
2021/05/16 02:33:46;;;;;;;17.80;4.87;;;11.20;99.90;;;;;;5049081;28;20244;-75
2021/05/16 02:36:12;;;;;;;18.50;4.57;;;11.20;99.90;;;;;;5048103;28;20252;-76
2021/05/16 02:38:38;;;;;;;18.97;4.50;;;11.20;99.90;;;;;;5049005;28;20237;-77
2021/05/16 02:41:04;;;;;;;22.33;4.60;;;11.20;99.90;;;;;;5051040;28;20540;-76
2021/05/16 02:43:29;;;;;;;18.13;4.23;;;11.20;99.90;;;;;;5047639;28;20185;-76
2021/05/16 02:45:55;;;;;;;20.00;4.33;;;11.20;99.90;;;;;;5052116;28;20180;-75
2021/05/16 02:48:22;;;;;;;19.70;4.43;;;11.20;99.90;;;;;;5049833;28;20215;-76
2021/05/16 02:50:48;;;;;;;19.10;4.50;;;11.10;99.90;;;;;;5048165;28;20189;-76
2021/05/16 02:53:22;;;;;;;21.33;4.03;;;11.10;99.90;;;;;;5046521;28;20242;-76
2021/05/16 02:55:54;;;;;;;14.13;3.97;;;11.10;99.90;;;;;;5046169;28;20211;-75
2021/05/16 02:58:21;;;;;;;21.53;4.63;;;11.10;99.90;;;;;;5049800;28;20666;-77
2021/05/16 03:00:54;;;;;;;19.97;4.77;;;11.10;99.90;;;;;;5050267;28;20183;-75
2021/05/16 03:03:20;;;;;;;18.07;4.00;;;11.10;99.90;;;;;;5049609;28;20188;-76
2021/05/16 03:05:48;;;;;;;20.40;4.47;;;11.20;99.90;;;;;;5052307;28;20188;-76
2021/05/16 03:08:14;;;;;;;17.40;4.53;;;11.10;99.90;;;;;;5047312;28;20184;-77
2021/05/16 03:10:42;;;;;;;20.00;4.53;;;11.00;99.90;;;;;;5049001;28;20211;-77
2021/05/16 03:13:07;;;;;;;19.30;4.10;;;11.00;99.90;;;;;;5049809;28;20208;-76
2021/05/16 03:15:34;;;;;;;23.47;4.50;;;11.10;99.90;;;;;;5033217;28;20190;-77
2021/05/16 03:18:00;;;;;;;21.10;4.40;;;11.10;99.90;;;;;;5045752;28;20182;-78
2021/05/16 03:20:27;;;;;;;20.50;4.83;;;11.00;99.90;;;;;;5045842;28;20219;-76
2021/05/16 03:22:53;;;;;;;20.57;4.90;;;11.00;99.90;;;;;;5052487;28;20540;-77
2021/05/16 03:25:20;;;;;;;23.07;5.33;;;11.00;99.90;;;;;;5049160;28;20211;-77
2021/05/16 03:27:47;;;;;;;22.50;5.80;;;11.00;99.90;;;;;;5049283;28;20817;-77
2021/05/16 03:30:13;;;;;;;17.30;4.93;;;11.00;99.90;;;;;;5043289;28;20237;-77
2021/05/16 03:32:41;;;;;;;23.37;4.97;;;11.00;99.90;;;;;;5052709;28;20299;-77
2021/05/16 03:35:08;;;;;;;18.43;5.33;;;11.00;99.90;;;;;;5047319;28;20224;-76
2021/05/16 03:37:34;;;;;;;17.57;5.50;;;11.00;99.90;;;;;;5050067;28;20185;-76
2021/05/16 03:40:00;;;;;;;21.87;5.77;;;11.10;99.90;;;;;;5050244;28;20190;-77
2021/05/16 03:42:26;;;;;;;23.27;6.63;;;11.00;99.90;;;;;;5039219;28;20171;-77
2021/05/16 03:44:56;;;;;;;25.27;6.53;;;11.10;99.90;;;;;;5049751;28;20296;-77
2021/05/16 03:47:22;;;;;;;23.50;6.67;;;11.10;99.90;;;;;;5051779;28;20271;-77
2021/05/16 03:49:48;;;;;;;21.87;6.90;;;11.10;99.90;;;;;;5047301;28;20631;-76
2021/05/16 03:52:18;;;;;;;25.63;7.10;;;11.00;99.90;;;;;;5051675;28;20214;-77
2021/05/16 03:54:44;;;;;;;24.10;6.83;;;11.10;99.90;;;;;;5045489;28;20267;-76
2021/05/16 03:57:10;;;;;;;22.30;6.37;;;11.00;99.90;;;;;;5050838;28;20275;-76
2021/05/16 03:59:35;;;;;;;23.73;7.43;;;11.00;99.90;;;;;;5040234;28;20193;-76
2021/05/16 04:02:01;;;;;;;25.47;7.10;;;11.00;99.90;;;;;;5050520;28;20719;-77
2021/05/16 04:04:27;;;;;;;26.43;7.40;;;11.10;99.90;;;;;;5048066;28;20210;-77
2021/05/16 04:06:52;;;;;;;26.47;7.37;;;11.20;99.90;;;;;;5044243;28;20549;-77
2021/05/16 04:09:18;;;;;;;24.27;7.57;;;11.10;99.90;;;;;;5050633;28;20699;-77
2021/05/16 04:11:44;;;;;;;22.23;6.93;;;11.10;99.90;;;;;;5051638;28;20186;-78
2021/05/16 04:14:09;;;;;;;20.07;6.70;;;11.10;99.90;;;;;;5050540;28;20254;-77
2021/05/16 04:16:35;;;;;;;20.70;7.20;;;11.10;99.90;;;;;;5051119;28;20785;-77
2021/05/16 04:19:00;;;;;;;21.87;7.17;;;11.10;99.90;;;;;;5049006;28;20667;-77
2021/05/16 04:21:26;;;;;;;19.33;6.87;;;11.10;99.90;;;;;;5047978;28;20214;-77
2021/05/16 04:23:52;;;;;;;23.23;6.77;;;11.10;99.90;;;;;;5038594;28;20181;-77
2021/05/16 04:26:18;;;;;;;19.63;6.77;;;11.20;99.90;;;;;;5049597;28;20247;-77
2021/05/16 04:28:43;;;;;;;23.73;6.47;;;11.40;99.90;;;;;;5044058;28;20216;-77
2021/05/16 04:31:09;;;;;;;24.40;6.70;;;11.50;99.90;;;;;;5049234;28;20185;-77
2021/05/16 04:33:34;;;;;;;20.10;6.50;;;11.50;99.90;;;;;;5048706;28;20224;-77
2021/05/16 04:36:00;;;;;;;18.40;5.60;;;11.50;99.90;;;;;;5038174;28;20708;-77
2021/05/16 04:38:26;;;;;;;19.33;4.87;;;11.60;99.90;;;;;;5050465;28;20186;-77
2021/05/16 04:40:52;;;;;;;18.33;5.43;;;11.60;99.90;;;;;;5048353;28;20212;-77
2021/05/16 04:43:18;;;;;;;19.07;5.23;;;11.80;99.90;;;;;;5047814;28;20671;-77
2021/05/16 04:45:46;;;;;;;19.03;5.23;;;12.00;99.90;;;;;;5047419;28;20188;-77
2021/05/16 04:48:12;;;;;;;20.10;5.00;;;12.20;99.90;;;;;;5040026;28;20186;-76
2021/05/16 04:50:38;;;;;;;17.90;4.73;;;12.30;99.90;;;;;;5049603;28;20324;-76
2021/05/16 04:53:03;;;;;;;17.90;4.83;;;12.30;99.90;;;;;;5044409;28;20180;-77
2021/05/16 04:55:29;;;;;;;19.40;4.63;;;12.30;99.90;;;;;;5047019;28;21045;-77
2021/05/16 04:57:54;;;;;;;23.67;5.07;;;12.20;99.90;;;;;;5052060;28;20569;-76
2021/05/16 05:00:21;;;;;;;17.70;4.63;;;12.30;99.90;;;;;;5046706;28;20216;-76
2021/05/16 05:02:47;;;;;;;22.23;4.90;;;12.60;99.90;;;;;;5050845;28;20211;-76
2021/05/16 05:05:14;;;;;;;17.83;4.37;;;12.70;99.90;;;;;;5044905;28;20224;-76
2021/05/16 05:07:40;;;;;;;17.93;4.47;;;12.90;99.90;;;;;;5050274;28;20189;-77
2021/05/16 05:10:07;;;;;;;16.77;3.97;;;12.90;99.90;;;;;;5044700;28;20214;-77
2021/05/16 05:12:33;;;;;;;15.27;4.10;;;12.90;99.90;;;;;;5043029;28;20192;-77
2021/05/16 05:14:59;;;;;;;18.03;4.00;;;12.80;99.90;;;;;;5046344;28;20171;-76
2021/05/16 05:17:24;;;;;;;16.40;3.60;;;12.90;99.90;;;;;;5040671;28;20205;-76
2021/05/16 05:19:50;;;;;;;17.77;3.13;;;13.40;99.90;;;;;;5048543;28;20182;-77
2021/05/16 05:22:16;;;;;;;12.37;3.10;;;13.50;99.90;;;;;;5024828;28;20181;-76
2021/05/16 05:24:41;;;;;;;15.50;3.10;;;13.60;99.90;;;;;;5046971;28;20191;-76
2021/05/16 05:27:07;;;;;;;16.20;3.50;;;13.70;99.90;;;;;;5051559;28;20186;-76
2021/05/16 05:29:33;;;;;;;18.50;3.40;;;13.80;99.90;;;;;;5054810;28;20217;-76
2021/05/16 05:31:58;;;;;;;14.80;3.07;;;13.70;99.90;;;;;;5048286;28;20255;-76
2021/05/16 05:34:25;;;;;;;13.43;2.83;;;13.70;99.90;;;;;;5050083;28;20190;-76
2021/05/16 05:36:51;;;;;;;15.37;2.90;;;13.70;99.90;;;;;;5047396;28;20272;-77
2021/05/16 05:39:18;;;;;;;16.90;2.83;;;13.60;99.90;;;;;;5049006;28;20285;-76
2021/05/16 05:41:45;;;;;;;14.83;2.90;;;13.70;99.90;;;;;;5045925;28;20198;-77
2021/05/16 05:44:11;;;;;;;16.63;2.93;;;14.10;99.90;;;;;;5047124;28;20185;-76
2021/05/16 05:46:37;;;;;;;14.93;2.70;;;14.60;99.90;;;;;;5036679;28;20194;-76
2021/05/16 05:49:03;;;;;;;14.90;2.93;;;14.60;99.90;;;;;;5046867;28;20198;-76
2021/05/16 05:51:29;;;;;;;15.13;3.23;;;14.40;99.90;;;;;;5049152;28;20184;-76
2021/05/16 05:53:54;;;;;;;16.13;3.10;;;14.40;99.90;;;;;;5047361;28;20210;-76
2021/05/16 05:56:20;;;;;;;14.77;2.70;;;14.40;99.90;;;;;;5045867;28;20532;-77
2021/05/16 05:58:46;;;;;;;14.50;2.90;;;15.10;99.90;;;;;;5042524;28;20180;-77
2021/05/16 06:01:11;;;;;;;13.43;2.70;;;17.40;99.90;;;;;;5048647;28;20189;-76
2021/05/16 06:03:37;;;;;;;11.70;2.70;;;18.10;99.90;;;;;;5032157;28;20193;-76
2021/05/16 06:06:03;;;;;;;14.93;3.20;;;17.70;99.90;;;;;;5047580;28;20228;-76
2021/05/16 06:08:29;;;;;;;12.83;2.80;;;17.10;99.90;;;;;;5052396;28;20283;-76
2021/05/16 06:10:54;;;;;;;14.10;3.30;;;16.40;99.90;;;;;;5047201;28;20238;-77
2021/05/16 06:13:20;;;;;;;14.93;3.27;;;15.70;99.90;;;;;;5051825;28;20189;-77
2021/05/16 06:15:46;;;;;;;13.47;3.50;;;15.20;99.90;;;;;;5044697;28;20177;-77
2021/05/16 06:18:12;;;;;;;13.87;3.30;;;14.90;99.90;;;;;;5035950;28;20173;-77
2021/05/16 06:20:37;;;;;;;14.83;3.97;;;14.80;99.90;;;;;;5047707;28;20238;-75
2021/05/16 06:23:05;;;;;;;16.77;4.20;;;14.60;99.90;;;;;;5047425;28;20185;-76
2021/05/16 06:25:30;;;;;;;22.07;4.40;;;14.70;99.90;;;;;;5048113;28;20180;-75
2021/05/16 06:27:57;;;;;;;15.63;4.13;;;14.90;99.90;;;;;;5050178;28;20658;-75
2021/05/16 06:30:25;;;;;;;16.03;4.47;;;15.10;99.90;;;;;;5049876;28;20208;-75
2021/05/16 06:32:51;;;;;;;16.37;4.07;;;15.00;99.90;;;;;;5048396;28;20198;-75
2021/05/16 06:35:17;;;;;;;18.20;4.10;;;15.00;99.90;;;;;;5043450;28;20258;-75
2021/05/16 06:37:44;;;;;;;22.77;4.60;;;15.00;99.90;;;;;;5050962;28;20173;-76
2021/05/16 06:40:14;;;;;;;15.73;4.70;;;15.00;99.90;;;;;;5040008;28;20521;-75
2021/05/16 06:42:40;;;;;;;19.57;5.00;;;15.00;99.90;;;;;;5050699;28;20185;-75
2021/05/16 06:45:07;;;;;;;16.33;4.40;;;15.10;99.90;;;;;;5047201;28;20193;-76
2021/05/16 06:47:32;;;;;;;17.83;4.30;;;15.30;99.90;;;;;;5049035;28;20537;-76
2021/05/16 06:49:58;;;;;;;18.77;4.50;;;15.30;99.90;;;;;;5047795;28;20255;-77
2021/05/16 06:52:24;;;;;;;20.60;4.70;;;15.40;99.90;;;;;;5048874;28;20214;-75
2021/05/16 06:54:49;;;;;;;21.10;4.50;;;15.40;99.90;;;;;;5052459;28;20176;-76
2021/05/16 06:57:16;;;;;;;17.97;4.37;;;15.80;99.90;;;;;;5041975;28;20645;-76
2021/05/16 06:59:42;;;;;;;18.37;4.40;;;15.80;99.90;;;;;;5049645;28;20219;-77
2021/05/16 07:02:07;;;;;;;13.63;4.60;;;16.00;99.90;;;;;;5046941;28;20665;-76
2021/05/16 07:04:33;;;;;;;19.93;4.30;;;16.10;99.90;;;;;;5046278;28;20235;-76
2021/05/16 07:06:59;;;;;;;15.73;4.00;;;16.10;99.90;;;;;;5051288;28;20657;-76
2021/05/16 07:09:24;;;;;;;20.60;4.27;;;16.50;99.90;;;;;;5045469;28;20335;-76
2021/05/16 07:11:51;;;;;;;16.43;3.80;;;16.90;99.90;;;;;;5051343;28;20196;-74
2021/05/16 07:14:17;;;;;;;17.87;3.93;;;17.20;99.90;;;;;;5048565;28;20171;-77
2021/05/16 07:16:43;;;;;;;17.33;3.63;;;17.30;99.90;;;;;;5049238;28;20664;-77
2021/05/16 07:19:08;;;;;;;18.13;3.53;;;17.50;99.90;;;;;;5046032;28;20186;-76
2021/05/16 07:21:34;;;;;;;18.53;3.87;;;17.50;99.90;;;;;;5047819;28;20536;-76
2021/05/16 07:24:00;;;;;;;15.60;3.83;;;17.30;99.90;;;;;;5050002;28;20731;-76
2021/05/16 07:26:26;;;;;;;20.47;3.57;;;18.00;99.90;;;;;;5039933;28;20186;-77
2021/05/16 07:28:51;;;;;;;16.67;3.60;;;19.00;99.90;;;;;;5049648;28;20221;-76
2021/05/16 07:31:17;;;;;;;16.30;2.80;;;20.10;99.90;;;;;;5042965;28;20189;-76
2021/05/16 07:33:43;;;;;;;18.97;3.43;;;20.80;99.90;;;;;;5039294;28;20260;-77
2021/05/16 07:36:09;;;;;;;18.23;3.83;;;21.90;99.90;;;;;;5051378;28;20695;-76
2021/05/16 07:38:35;;;;;;;15.07;3.27;;;22.70;99.90;;;;;;5041910;28;20200;-76
2021/05/16 07:41:01;;;;;;;15.57;3.77;;;22.20;99.90;;;;;;5048804;28;20189;-77
2021/05/16 07:43:26;;;;;;;17.73;4.17;;;21.80;99.90;;;;;;5042781;28;20661;-76
2021/05/16 07:45:52;;;;;;;15.40;3.13;;;22.20;99.90;;;;;;5047862;28;20235;-77
2021/05/16 07:48:18;;;;;;;15.60;3.13;;;22.20;99.90;;;;;;5050430;28;20178;-77
2021/05/16 07:50:45;;;;;;;15.20;3.43;;;23.80;99.90;;;;;;5047780;28;20178;-75
2021/05/16 07:53:11;;;;;;;14.70;3.07;;;25.20;97.60;;;;;;5050146;28;20264;-75
2021/05/16 07:55:40;;;;;;;13.97;2.93;;;27.30;94.10;;;;;;5050717;28;20219;-76
2021/05/16 07:58:06;;;;;;;14.82;3.10;;;28.50;86.10;;;;;;5048310;28;20183;-75
2021/05/16 08:00:32;;;;;;;11.98;2.70;;;28.80;80.10;;;;;;5048371;28;20264;-76
2021/05/16 08:02:57;;;;;;;13.25;3.47;;;28.20;80.40;;;;;;5049493;28;20200;-75
2021/05/16 08:05:23;;;;;;;12.35;3.15;;;29.10;76.80;;;;;;5052364;28;20736;-75
2021/05/16 08:07:49;;;;;;;14.60;3.45;;;29.10;71.90;;;;;;5046358;28;20224;-75
2021/05/16 08:10:19;;;;;;;11.30;2.72;;;30.30;69.30;;;;;;5048428;28;20212;-75
2021/05/16 08:12:45;;;;;;;11.52;2.80;;;29.80;72.80;;;;;;5043628;28;20173;-76
2021/05/16 08:15:11;;;;;;;12.45;3.30;;;30.40;68.40;;;;;;5047779;28;20556;-76
2021/05/16 08:17:37;;;;;;;13.65;3.30;;;28.30;68.20;;;;;;5048618;28;20212;-76
2021/05/16 08:20:05;;;;;;;13.73;3.45;;;26.60;71.40;;;;;;5045288;28;20933;-76
2021/05/16 08:22:31;;;;;;;14.97;3.53;;;25.30;77.60;;;;;;5048607;28;20230;-75
2021/05/16 08:24:56;;;;;;;14.10;3.90;;;24.90;79.20;;;;;;5045551;28;20647;-76
2021/05/16 08:27:22;;;;;;;18.80;6.30;;;24.60;82.00;;;;;;5048136;28;20190;-75
2021/05/16 08:29:48;;;;;;;20.53;6.17;;;23.40;82.00;;;;;;5049619;28;20557;-75
2021/05/16 08:32:14;;;;;;;18.23;5.60;;;22.60;88.30;;;;;;5047205;28;20187;-75
2021/05/16 08:34:40;;;;;;;17.03;5.43;;;22.20;91.00;;;;;;5048187;28;20184;-75
2021/05/16 08:37:09;;;;;;;18.60;4.20;;;21.70;91.60;;;;;;5046487;28;20197;-75
2021/05/16 08:39:35;;;;;;;13.83;3.73;;;22.70;93.30;;;;;;5053020;28;20257;-75
2021/05/16 08:42:01;;;;;;;17.30;4.17;;;23.50;90.10;;;;;;5045649;28;20190;-75
2021/05/16 08:44:27;;;;;;;16.97;4.33;;;22.70;91.20;;;;;;5047982;28;20191;-75
2021/05/16 08:46:53;;;;;;;13.30;2.97;;;21.60;93.30;;;;;;5049373;28;20212;-75
2021/05/16 08:49:19;;;;;;;15.63;3.10;;;20.90;94.50;;;;;;5048655;28;20214;-75
2021/05/16 08:51:49;;;;;;;13.67;3.07;;;20.50;95.10;;;;;;5035866;28;20217;-75
2021/05/16 08:54:20;;;;;;;14.80;2.80;;;20.70;95.40;;;;;;5046882;28;20203;-75
2021/05/16 08:56:47;;;;;;;13.87;3.00;;;23.00;94.30;;;;;;5048852;28;20499;-75
2021/05/16 08:59:13;;;;;;;10.80;3.10;;;24.30;90.10;;;;;;5048733;28;20423;-75
2021/05/16 09:01:50;;;;;;;11.17;2.70;;;25.20;90.30;;;;;;5048883;28;20227;-75
2021/05/16 09:04:29;;;;;;;10.27;2.40;;;26.80;83.00;;;;;;5046918;28;20279;-75
2021/05/16 09:06:56;;;;;;;9.18;2.42;;;26.90;77.00;;;;;;5049937;28;20276;-75
2021/05/16 09:09:36;;;;;;;11.80;3.05;;;27.20;75.90;;;;;;5047679;28;20556;-75
2021/05/16 09:12:15;;;;;;;11.50;2.25;;;27.60;72.50;;;;;;5047017;28;20269;-75
2021/05/16 09:14:52;;;;;;;9.10;2.10;;;26.50;75.20;;;;;;5048217;28;20956;-75
2021/05/16 09:17:39;;;;;;;13.20;5.30;;;24.10;75.80;;;;;;5044866;28;20192;-75
2021/05/16 09:20:08;;;;;;;14.47;6.30;;;23.00;82.30;;;;;;5046808;28;20230;-75
2021/05/16 09:22:38;;;;;;;15.53;4.67;;;22.50;85.10;;;;;;5045536;28;20224;-75
2021/05/16 09:25:18;;;;;;;14.70;4.97;;;21.90;87.00;;;;;;5047148;28;20586;-75
2021/05/16 09:27:51;;;;;;;19.57;6.20;;;21.50;87.30;;;;;;5046311;28;20208;-75
2021/05/16 09:30:17;;;;;;;17.97;5.27;;;20.60;90.20;;;;;;5048203;28;20266;-75
2021/05/16 09:32:54;;;;;;;15.17;5.03;;;20.30;91.20;;;;;;5049551;28;20599;-75
2021/05/16 09:35:35;;;;;;;26.30;12.83;;;19.90;92.00;;;;;;5062438;28;20247;-75
2021/05/16 09:38:02;;;;;;;22.90;10.67;;;20.20;92.90;;;;;;5041824;28;20218;-75
2021/05/16 09:40:31;;;;;;;13.80;4.90;;;20.50;94.10;;;;;;5051121;28;20734;-76
2021/05/16 09:43:12;;;;;;;15.30;6.20;;;20.70;94.90;;;;;;5033457;28;21006;-75
2021/05/16 09:45:56;;;;;;;19.37;6.30;;;20.50;92.40;;;;;;5051688;28;20284;-75
2021/05/16 09:48:41;;;;;;;18.57;7.07;;;20.30;93.60;;;;;;5048921;28;20648;-75
2021/05/16 09:51:10;;;;;;;15.27;6.10;;;20.20;94.60;;;;;;5046487;28;20188;-74
2021/05/16 09:53:45;;;;;;;16.30;5.73;;;20.10;95.00;;;;;;5048308;28;20209;-75
2021/05/16 09:56:17;;;;;;;13.50;4.00;;;19.80;95.00;;;;;;5049914;28;20281;-76
2021/05/16 09:58:43;;;;;;;17.90;5.30;;;19.60;95.40;;;;;;5047657;28;20539;-76
2021/05/16 10:01:09;;;;;;;14.80;3.53;;;19.50;97.30;;;;;;5049428;28;20593;-76
2021/05/16 10:03:36;;;;;;;25.83;13.50;;;19.30;96.70;;;;;;5048750;28;20338;-75
2021/05/16 10:06:02;;;;;;;21.50;8.97;;;19.20;97.20;;;;;;5049973;28;20276;-75
2021/05/16 10:08:29;;;;;;;19.77;6.87;;;18.80;99.90;;;;;;5049279;28;20264;-76
2021/05/16 10:10:55;;;;;;;21.73;9.33;;;18.20;99.90;;;;;;5051414;28;20188;-76
2021/05/16 10:13:24;;;;;;;13.43;2.73;;;17.80;99.90;;;;;;5045677;28;20242;-76
2021/05/16 10:15:52;;;;;;;18.10;5.27;;;17.30;99.90;;;;;;5046858;28;20188;-76
2021/05/16 10:18:19;;;;;;;11.67;3.60;;;17.10;99.90;;;;;;5051668;28;20175;-76
2021/05/16 10:20:45;;;;;;;13.33;4.53;;;17.10;99.90;;;;;;5039980;28;20206;-76
2021/05/16 10:23:11;;;;;;;12.33;4.17;;;17.10;99.90;;;;;;5051698;28;20191;-76
2021/05/16 10:25:42;;;;;;;28.43;12.73;;;17.30;99.90;;;;;;5049803;28;20191;-76
2021/05/16 10:28:11;;;;;;;28.57;15.73;;;17.60;99.90;;;;;;5049710;28;20191;-76
2021/05/16 10:30:37;;;;;;;31.37;16.13;;;17.90;99.90;;;;;;5050387;28;20197;-75
2021/05/16 10:33:03;;;;;;;13.97;4.03;;;18.10;99.90;;;;;;5051521;28;20215;-76
2021/05/16 10:35:50;;;;;;;15.40;4.27;;;18.00;99.90;;;;;;5047798;28;20231;-76
2021/05/16 10:38:44;;;;;;;13.60;3.73;;;18.40;99.90;;;;;;5050220;28;20264;-76
2021/05/16 10:41:17;;;;;;;12.77;2.10;;;19.20;99.90;;;;;;5050375;28;20175;-76
2021/05/16 10:43:43;;;;;;;12.83;2.13;;;20.40;99.90;;;;;;5048489;28;20263;-76
2021/05/16 10:46:36;;;;;;;13.27;2.70;;;21.80;99.90;;;;;;5051641;28;20304;-78
2021/05/16 10:49:25;;;;;;;7.73;1.73;;;23.40;99.90;;;;;;5044877;28;20310;-84
2021/05/16 10:51:51;;;;;;;10.40;2.30;;;23.80;99.90;;;;;;5050126;28;20757;-75
2021/05/16 10:54:34;;;;;;;11.40;1.73;;;22.90;99.90;;;;;;5046749;28;20548;-76
2021/05/16 10:57:09;;;;;;;23.00;11.40;;;21.10;99.90;;;;;;5050181;28;20189;-75
2021/05/16 10:59:39;;;;;;;16.27;9.40;;;21.40;99.90;;;;;;5043127;28;20190;-76
2021/05/16 11:02:05;;;;;;;15.57;6.77;;;22.50;99.90;;;;;;5047378;28;20205;-76
2021/05/16 11:04:47;;;;;;;26.93;14.67;;;22.30;99.90;;;;;;5050723;28;20186;-76
2021/05/16 11:07:35;;;;;;;10.00;2.40;;;22.70;99.90;;;;;;5047290;28;20234;-75
2021/05/16 11:10:27;;;;;;;11.00;2.23;;;22.10;99.90;;;;;;5049317;28;20626;-77
2021/05/16 11:13:05;;;;;;;8.67;2.20;;;22.60;99.90;;;;;;5050502;28;20236;-77
2021/05/16 11:15:30;;;;;;;15.13;5.40;;;23.90;99.90;;;;;;5050168;28;20729;-77
2021/05/16 11:17:56;;;;;;;22.07;10.07;;;26.00;98.70;;;;;;5050568;28;20290;-77
2021/05/16 11:20:22;;;;;;;15.57;6.07;;;26.40;94.70;;;;;;5046685;28;20670;-77
2021/05/16 11:22:47;;;;;;;19.27;8.90;;;26.30;95.40;;;;;;5048593;28;20176;-77
2021/05/16 11:25:24;;;;;;;15.97;9.37;;;26.00;94.90;;;;;;5044317;28;20202;-76
2021/05/16 11:27:50;;;;;;;77.03;53.67;;;25.70;90.20;;;;;;5048753;28;20601;-77
2021/05/16 11:30:16;;;;;;;20.75;13.68;;;26.50;90.70;;;;;;5045426;28;20200;-77
2021/05/16 11:32:42;;;;;;;25.02;13.52;;;26.70;90.30;;;;;;5046586;28;20185;-76
2021/05/16 11:35:07;;;;;;;19.60;10.70;;;27.40;83.50;;;;;;5047040;28;20247;-74
2021/05/16 11:37:34;;;;;;;7.82;3.40;;;28.70;82.80;;;;;;5045052;28;20192;-75
2021/05/16 11:40:21;;;;;;;7.32;3.40;;;27.90;78.20;;;;;;5047946;28;20199;-75
2021/05/16 11:42:48;;;;;;;4.43;1.52;;;28.40;81.30;;;;;;5046247;28;20242;-75
2021/05/16 11:45:16;;;;;;;4.65;1.60;;;28.50;75.40;;;;;;5043136;28;20246;-76
2021/05/16 11:47:43;;;;;;;4.07;1.30;;;29.00;74.20;;;;;;5026406;28;20178;-75
2021/05/16 11:50:10;;;;;;;4.88;1.30;;;28.00;74.60;;;;;;5045141;28;20612;-76
2021/05/16 11:52:36;;;;;;;4.63;1.50;;;27.60;74.20;;;;;;5048757;28;20286;-76
2021/05/16 11:55:11;;;;;;;4.30;1.90;;;28.10;74.00;;;;;;5042516;28;20822;-75
2021/05/16 11:57:45;;;;;;;3.95;1.35;;;29.30;75.40;;;;;;5049165;28;20182;-75
2021/05/16 12:00:13;;;;;;;3.78;1.00;;;28.30;65.40;;;;;;5046538;28;20220;-75
2021/05/16 12:02:40;;;;;;;4.78;1.38;;;28.60;68.30;;;;;;5048130;28;20189;-75
2021/05/16 12:05:06;;;;;;;3.55;1.20;;;29.60;72.10;;;;;;5048580;28;20180;-76
2021/05/16 12:07:32;;;;;;;3.38;0.98;;;30.40;63.60;;;;;;5048024;28;20245;-76
2021/05/16 12:09:58;;;;;;;3.53;1.05;;;29.40;67.80;;;;;;5043556;28;20201;-75
2021/05/16 12:12:27;;;;;;;3.65;1.20;;;28.10;65.70;;;;;;5028577;28;20174;-78
2021/05/16 12:14:55;;;;;;;3.15;0.98;;;27.00;68.10;;;;;;5046226;28;20176;-76
2021/05/16 12:17:30;;;;;;;4.10;1.10;;;25.60;69.80;;;;;;5044786;28;20181;-76
2021/05/16 12:19:56;;;;;;;4.93;1.20;;;24.50;73.50;;;;;;5046784;28;20203;-76
2021/05/16 12:22:22;;;;;;;3.97;1.10;;;24.10;77.00;;;;;;5045804;28;20643;-76
2021/05/16 12:24:49;;;;;;;4.50;1.40;;;23.80;79.30;;;;;;5045541;28;20192;-76
2021/05/16 12:27:17;;;;;;;4.00;1.30;;;23.40;82.40;;;;;;5047634;28;20200;-76
2021/05/16 12:29:46;;;;;;;5.20;1.53;;;23.20;78.40;;;;;;5040507;28;20208;-76
2021/05/16 12:32:19;;;;;;;4.67;1.10;;;23.00;79.70;;;;;;5049657;28;20180;-76
2021/05/16 12:34:45;;;;;;;8.47;2.00;;;22.70;82.90;;;;;;5044654;28;20211;-76
2021/05/16 12:37:17;;;;;;;5.57;1.20;;;22.50;82.80;;;;;;5048127;28;20647;-76
2021/05/16 12:39:45;;;;;;;6.67;1.10;;;22.60;81.40;;;;;;5050572;28;20190;-75
2021/05/16 12:42:33;;;;;;;4.57;1.30;;;22.80;83.40;;;;;;5052062;28;20222;-76